Time;durP1;ratioP1;P1;durP2;ratioP2;P2;SDS_P1;SDS_P2;PMS_P1;PMS_P2;Temp;Humidity;BMP_temperature;BMP_pressure;BME280_temperature;BME280_humidity;BME280_pressure;Samples;Min_cycle;Max_cycle;Signal;HPM_P1;HPM_P2
2023/02/07 00:01:58;;;;;;;12.73;3.85;;;2.10;99.90;;;;;;4996431;28;20040;-72
2023/02/07 00:04:23;;;;;;;17.50;4.65;;;2.10;99.90;;;;;;5004301;28;20649;-72
2023/02/07 00:06:49;;;;;;;15.27;3.75;;;2.10;99.90;;;;;;5001233;28;20045;-72
2023/02/07 00:09:16;;;;;;;14.82;4.95;;;2.10;99.90;;;;;;5006245;28;20061;-72
2023/02/07 00:11:42;;;;;;;22.27;3.95;;;2.10;99.90;;;;;;5001970;28;20041;-72
2023/02/07 00:14:10;;;;;;;19.65;5.45;;;2.00;99.90;;;;;;5003954;28;20037;-72
2023/02/07 00:16:36;;;;;;;18.35;4.78;;;2.00;99.90;;;;;;5005410;28;20037;-71
2023/02/07 00:19:02;;;;;;;16.92;4.85;;;2.00;99.90;;;;;;5006319;28;20492;-72
2023/02/07 00:21:28;;;;;;;14.95;4.40;;;1.90;99.90;;;;;;5004968;28;20120;-72
2023/02/07 00:23:55;;;;;;;15.93;4.45;;;1.90;99.90;;;;;;5001791;28;20038;-71
2023/02/07 00:26:22;;;;;;;17.77;4.35;;;1.90;99.90;;;;;;5006210;28;20036;-72
2023/02/07 00:28:50;;;;;;;19.48;4.90;;;1.90;99.90;;;;;;5004798;28;20076;-72
2023/02/07 00:31:19;;;;;;;16.95;4.18;;;1.80;99.90;;;;;;5003391;28;20046;-72
2023/02/07 00:33:46;;;;;;;14.73;4.68;;;1.80;99.90;;;;;;5005382;28;20499;-72
2023/02/07 00:36:17;;;;;;;16.60;5.13;;;1.80;99.90;;;;;;4999118;28;20033;-72
2023/02/07 00:38:43;;;;;;;19.15;5.13;;;1.80;99.90;;;;;;5004031;28;20092;-71
2023/02/07 00:41:13;;;;;;;16.67;4.43;;;1.70;99.90;;;;;;5005875;28;20574;-72
2023/02/07 00:43:40;;;;;;;14.13;3.35;;;1.70;99.90;;;;;;5005623;28;20161;-70
2023/02/07 00:46:06;;;;;;;23.75;4.72;;;1.70;99.90;;;;;;5006516;28;20109;-72
2023/02/07 00:48:32;;;;;;;21.63;5.53;;;1.70;99.90;;;;;;5005039;28;20041;-71
2023/02/07 00:50:58;;;;;;;27.80;4.60;;;1.70;99.90;;;;;;5001974;28;20034;-72
2023/02/07 00:53:25;;;;;;;17.92;4.47;;;1.70;99.90;;;;;;5003656;28;20033;-72
2023/02/07 00:55:51;;;;;;;21.50;4.50;;;1.70;99.90;;;;;;5006324;28;20042;-71
2023/02/07 00:58:17;;;;;;;18.55;4.45;;;1.60;99.90;;;;;;5005632;28;20038;-72
2023/02/07 01:00:42;;;;;;;20.67;5.10;;;1.60;99.90;;;;;;5000808;28;20025;-71
2023/02/07 01:03:08;;;;;;;10.13;4.63;;;1.60;99.90;;;;;;5005686;28;20022;-72
2023/02/07 01:05:34;;;;;;;15.68;3.45;;;1.60;99.90;;;;;;5001915;28;20044;-72
2023/02/07 01:08:00;;;;;;;13.05;4.72;;;1.50;99.90;;;;;;5002077;28;20828;-72
2023/02/07 01:10:25;;;;;;;20.13;4.50;;;1.50;99.90;;;;;;5004864;28;20030;-72
2023/02/07 01:12:52;;;;;;;16.73;4.05;;;1.50;99.90;;;;;;5003671;28;20030;-72
2023/02/07 01:15:18;;;;;;;14.18;3.92;;;1.50;99.90;;;;;;5005381;28;20065;-72
2023/02/07 01:17:44;;;;;;;15.73;4.65;;;1.40;99.90;;;;;;4996090;28;20030;-71
2023/02/07 01:20:10;;;;;;;14.70;3.50;;;1.40;99.90;;;;;;5006123;28;20387;-72
2023/02/07 01:22:37;;;;;;;23.08;3.58;;;1.40;99.90;;;;;;5004753;28;20056;-71
2023/02/07 01:25:03;;;;;;;23.98;3.63;;;1.40;99.90;;;;;;5001728;28;20038;-72
2023/02/07 01:27:29;;;;;;;14.68;3.42;;;1.40;99.90;;;;;;5006797;28;20021;-72
2023/02/07 01:29:54;;;;;;;13.52;3.85;;;1.40;99.90;;;;;;5005899;28;20049;-72
2023/02/07 01:32:20;;;;;;;12.23;4.07;;;1.40;99.90;;;;;;5001270;28;20121;-73
2023/02/07 01:34:45;;;;;;;10.68;2.95;;;1.40;99.90;;;;;;5005481;28;20406;-72
2023/02/07 01:37:11;;;;;;;9.10;4.13;;;1.40;99.90;;;;;;4999859;28;20491;-72
2023/02/07 01:39:37;;;;;;;12.07;3.38;;;1.30;99.90;;;;;;5004728;28;20065;-71
2023/02/07 01:42:02;;;;;;;20.15;4.15;;;1.30;99.90;;;;;;5002315;28;20321;-72
2023/02/07 01:44:28;;;;;;;12.73;3.10;;;1.30;99.90;;;;;;5003081;28;20034;-74
2023/02/07 01:46:55;;;;;;;18.10;3.70;;;1.30;99.90;;;;;;5005475;28;20048;-71
2023/02/07 01:49:24;;;;;;;21.25;4.32;;;1.30;99.90;;;;;;5001439;28;20042;-71
2023/02/07 01:51:55;;;;;;;17.83;3.33;;;1.30;99.90;;;;;;5004928;28;20033;-72
2023/02/07 01:54:21;;;;;;;;;;;1.20;99.90;;;;;;5001080;28;20037;-71
2023/02/07 01:56:55;;;;;;;11.82;2.85;;;1.20;99.90;;;;;;5001476;28;19993;-72
2023/02/07 01:59:23;;;;;;;13.85;3.58;;;1.20;99.90;;;;;;5003509;28;20069;-72
2023/02/07 02:01:49;;;;;;;14.18;4.00;;;1.30;99.90;;;;;;5003131;28;20044;-72
2023/02/07 02:04:14;;;;;;;14.05;3.63;;;1.20;99.90;;;;;;4997722;28;20034;-72
2023/02/07 02:06:40;;;;;;;10.90;3.80;;;1.30;99.90;;;;;;4995831;28;20034;-71
2023/02/07 02:09:12;;;;;;;11.13;3.55;;;1.20;99.90;;;;;;4998157;28;20041;-73
2023/02/07 02:12:03;;;;;;;15.23;3.70;;;1.20;99.90;;;;;;5005412;28;20386;-71
2023/02/07 02:14:57;;;;;;;14.40;3.92;;;1.20;99.90;;;;;;4998724;28;20054;-73
2023/02/07 02:17:51;;;;;;;16.90;3.72;;;1.10;99.90;;;;;;4993330;28;20371;-72
2023/02/07 02:20:17;;;;;;;20.00;5.63;;;1.10;99.90;;;;;;4995706;28;20029;-72
2023/02/07 02:22:54;;;;;;;21.85;6.28;;;1.10;99.90;;;;;;4999402;28;20046;-72
2023/02/07 02:25:56;;;;;;;20.25;5.35;;;1.40;99.90;;;;;;5002981;28;20041;-75
2023/02/07 02:28:49;;;;;;;23.55;6.78;;;1.50;99.90;;;;;;5003882;28;20037;-73
2023/02/07 02:31:34;;;;;;;17.23;4.18;;;1.60;99.90;;;;;;5002050;28;20448;-72
2023/02/07 02:34:11;;;;;;;26.23;5.88;;;1.70;99.90;;;;;;5005427;28;20137;-72
2023/02/07 02:37:08;;;;;;;21.55;5.95;;;1.80;99.90;;;;;;5005649;28;20042;-72
2023/02/07 02:40:00;;;;;;;19.80;6.00;;;1.80;99.90;;;;;;5001623;28;20022;-72
2023/02/07 02:42:49;;;;;;;21.98;6.28;;;1.80;99.90;;;;;;5007246;28;20134;-72
2023/02/07 02:45:26;;;;;;;27.35;5.68;;;1.90;99.90;;;;;;5003652;28;20363;-72
2023/02/07 02:47:52;;;;;;;27.70;6.57;;;1.90;99.90;;;;;;5004794;28;20049;-72
2023/02/07 02:50:22;;;;;;;20.60;6.47;;;1.90;99.90;;;;;;5008103;28;20165;-72
2023/02/07 02:52:48;;;;;;;24.33;6.55;;;2.00;99.90;;;;;;5008148;28;20083;-72
2023/02/07 02:55:15;;;;;;;16.75;5.50;;;1.90;99.90;;;;;;5007923;28;20049;-72
2023/02/07 02:57:46;;;;;;;22.73;5.45;;;1.90;99.90;;;;;;5008059;28;20052;-72
2023/02/07 03:00:34;;;;;;;15.35;5.10;;;1.80;99.90;;;;;;5007554;28;20068;-72
2023/02/07 03:03:08;;;;;;;25.00;6.28;;;1.80;99.90;;;;;;5002305;28;20037;-71
2023/02/07 03:05:59;;;;;;;36.92;8.23;;;1.80;99.90;;;;;;5005506;28;20091;-72
2023/02/07 03:08:49;;;;;;;32.25;8.32;;;1.90;99.90;;;;;;5002200;28;20038;-73
2023/02/07 03:11:17;;;;;;;24.85;6.65;;;1.90;99.90;;;;;;5006872;28;20037;-73
2023/02/07 03:13:51;;;;;;;22.17;7.30;;;1.90;99.90;;;;;;5003676;28;20038;-72
2023/02/07 03:16:53;;;;;;;28.73;9.80;;;2.00;99.90;;;;;;5001194;28;20491;-72
2023/02/07 03:19:26;;;;;;;27.58;7.45;;;2.10;99.90;;;;;;4994566;28;20034;-72
2023/02/07 03:21:57;;;;;;;23.42;7.72;;;2.00;99.90;;;;;;5006145;28;20117;-72
2023/02/07 03:24:33;;;;;;;22.25;7.13;;;2.00;99.90;;;;;;5003797;28;20028;-72
2023/02/07 03:27:03;;;;;;;37.60;8.82;;;1.90;99.90;;;;;;5004133;28;20029;-72
2023/02/07 03:29:33;;;;;;;24.17;7.60;;;2.00;99.90;;;;;;5000146;28;20426;-72
2023/02/07 03:32:04;;;;;;;25.70;7.75;;;1.90;99.90;;;;;;5002453;28;20031;-73
2023/02/07 03:34:37;;;;;;;33.53;7.35;;;1.90;99.90;;;;;;5002513;28;20052;-72
2023/02/07 03:37:13;;;;;;;24.13;6.85;;;1.90;99.90;;;;;;4999206;28;20089;-72
2023/02/07 03:39:39;;;;;;;24.15;6.55;;;1.90;99.90;;;;;;5003198;28;20042;-72
2023/02/07 03:42:10;;;;;;;23.73;7.47;;;1.90;99.90;;;;;;5007443;28;20026;-73
2023/02/07 03:44:39;;;;;;;38.75;8.15;;;1.90;99.90;;;;;;4998880;28;20034;-72
2023/02/07 03:47:05;;;;;;;20.83;6.95;;;1.90;99.90;;;;;;5002409;28;20058;-73
2023/02/07 03:49:30;;;;;;;29.92;8.25;;;1.90;99.90;;;;;;5007539;28;20064;-72
2023/02/07 03:51:56;;;;;;;33.92;8.57;;;1.90;99.90;;;;;;5008370;28;20088;-71
2023/02/07 03:54:21;;;;;;;23.20;8.15;;;1.90;99.90;;;;;;5006815;28;20042;-73
2023/02/07 03:56:47;;;;;;;23.95;8.07;;;1.80;99.90;;;;;;5009652;28;20038;-72
2023/02/07 03:59:12;;;;;;;23.05;6.95;;;1.80;99.90;;;;;;5007112;28;20042;-72
2023/02/07 04:01:41;;;;;;;33.83;7.93;;;1.80;99.90;;;;;;5002570;28;20032;-73
2023/02/07 04:04:08;;;;;;;24.60;7.20;;;1.80;99.90;;;;;;5001291;28;20076;-72
2023/02/07 04:06:33;;;;;;;26.67;7.38;;;1.90;99.90;;;;;;4999849;28;20037;-71
2023/02/07 04:08:59;;;;;;;18.15;6.32;;;1.90;99.90;;;;;;5004143;28;20026;-71
2023/02/07 04:11:25;;;;;;;19.85;7.72;;;1.90;99.90;;;;;;5002507;28;20080;-74
2023/02/07 04:13:50;;;;;;;27.63;8.75;;;1.80;99.90;;;;;;5007133;28;20122;-73
2023/02/07 04:16:16;;;;;;;25.17;9.07;;;1.80;99.90;;;;;;5005777;28;20049;-73
2023/02/07 04:18:42;;;;;;;23.38;7.30;;;1.70;99.90;;;;;;5000054;28;20037;-72
2023/02/07 04:21:08;;;;;;;22.38;8.02;;;1.70;99.90;;;;;;5003524;28;20041;-72
2023/02/07 04:23:34;;;;;;;25.13;7.53;;;1.60;99.90;;;;;;5005351;28;20458;-72
2023/02/07 04:26:00;;;;;;;27.90;7.00;;;1.60;99.90;;;;;;5003160;28;20402;-71
2023/02/07 04:28:26;;;;;;;20.10;6.75;;;1.60;99.90;;;;;;5006550;28;20041;-72
2023/02/07 04:30:52;;;;;;;19.60;7.03;;;1.60;99.90;;;;;;4999982;28;20026;-71
2023/02/07 04:33:17;;;;;;;27.38;8.50;;;1.60;99.90;;;;;;5003074;28;20034;-74
2023/02/07 04:35:43;;;;;;;19.15;7.13;;;1.50;99.90;;;;;;5002009;28;20477;-72
2023/02/07 04:38:09;;;;;;;21.95;7.18;;;1.50;99.90;;;;;;4999835;28;20112;-72
2023/02/07 04:40:34;;;;;;;28.35;7.70;;;1.40;99.90;;;;;;5002175;28;20057;-72
2023/02/07 04:43:00;;;;;;;19.20;7.05;;;1.40;99.90;;;;;;5000255;28;20120;-72
2023/02/07 04:45:25;;;;;;;21.05;7.03;;;1.40;99.90;;;;;;5002635;28;20033;-72
2023/02/07 04:47:51;;;;;;;24.70;8.07;;;1.30;99.90;;;;;;4992439;28;20038;-72
2023/02/07 04:50:18;;;;;;;26.50;7.93;;;1.20;99.90;;;;;;5000300;28;20038;-72
2023/02/07 04:52:43;;;;;;;32.75;8.05;;;1.20;99.90;;;;;;5001738;28;20037;-72
2023/02/07 04:55:09;;;;;;;25.70;7.65;;;1.20;99.90;;;;;;4999276;28;20485;-72
2023/02/07 04:57:35;;;;;;;24.63;8.02;;;1.20;99.90;;;;;;5002061;28;20072;-72
2023/02/07 05:00:01;;;;;;;27.23;7.75;;;1.20;99.90;;;;;;5003744;28;20030;-72
2023/02/07 05:02:26;;;;;;;25.55;7.70;;;1.10;99.90;;;;;;5002284;28;20038;-72
2023/02/07 05:04:52;;;;;;;35.22;8.15;;;1.10;99.90;;;;;;5001499;28;20044;-71
2023/02/07 05:07:18;;;;;;;27.90;8.82;;;1.30;99.90;;;;;;5000029;28;20057;-72
2023/02/07 05:09:43;;;;;;;26.58;8.55;;;1.20;99.90;;;;;;5003141;28;20037;-71
2023/02/07 05:12:09;;;;;;;20.60;7.82;;;1.20;99.90;;;;;;5003244;28;20038;-72
2023/02/07 05:14:35;;;;;;;29.30;8.10;;;1.20;99.90;;;;;;4999643;28;20566;-72
2023/02/07 05:17:00;;;;;;;20.60;8.05;;;1.20;99.90;;;;;;5000244;28;20054;-71
2023/02/07 05:19:26;;;;;;;22.45;7.82;;;1.20;99.90;;;;;;4999610;28;20032;-72
2023/02/07 05:21:52;;;;;;;23.90;7.25;;;1.10;99.90;;;;;;4998292;28;20048;-72
2023/02/07 05:24:17;;;;;;;24.05;8.10;;;1.10;99.90;;;;;;5000303;28;20407;-73
2023/02/07 05:26:43;;;;;;;35.20;8.63;;;1.10;99.90;;;;;;4999432;28;20069;-72
2023/02/07 05:29:08;;;;;;;34.60;9.00;;;1.10;99.90;;;;;;4998816;28;20099;-72
2023/02/07 05:34:18;;;;;;;33.33;9.48;;;1.00;99.90;;;;;;5001754;28;20041;-72
2023/02/07 05:36:44;;;;;;;32.10;8.40;;;1.00;99.90;;;;;;5004038;28;20034;-72
2023/02/07 05:39:09;;;;;;;28.90;8.27;;;1.00;99.90;;;;;;4999961;28;20034;-72
2023/02/07 05:41:35;;;;;;;29.95;8.73;;;1.00;99.90;;;;;;5000146;28;20383;-72
2023/02/07 05:44:00;;;;;;;22.10;7.95;;;1.00;99.90;;;;;;5000228;28;20034;-72
2023/02/07 05:46:26;;;;;;;29.58;9.55;;;1.00;99.90;;;;;;4985915;28;20402;-71
2023/02/07 05:48:52;;;;;;;23.77;7.80;;;0.90;99.90;;;;;;4998294;28;20046;-72
2023/02/07 05:51:18;;;;;;;30.33;9.48;;;0.90;99.90;;;;;;5002852;28;20036;-71
2023/02/07 05:53:44;;;;;;;28.83;8.73;;;1.00;99.90;;;;;;4998821;28;20034;-72
2023/02/07 05:56:09;;;;;;;25.55;7.95;;;1.00;99.90;;;;;;4999481;28;20030;-72
2023/02/07 05:58:35;;;;;;;35.20;9.27;;;1.00;99.90;;;;;;5018333;28;20037;-73
2023/02/07 06:01:00;;;;;;;23.08;8.10;;;1.00;99.90;;;;;;4999594;28;20120;-73
2023/02/07 06:03:26;;;;;;;24.15;8.85;;;0.90;99.90;;;;;;4999382;28;20034;-71
2023/02/07 06:05:51;;;;;;;35.50;9.85;;;0.90;99.90;;;;;;5007178;28;20034;-72
2023/02/07 06:08:17;;;;;;;33.08;8.30;;;0.90;99.90;;;;;;5001261;28;20376;-72
2023/02/07 06:10:43;;;;;;;28.48;8.45;;;0.90;99.90;;;;;;5005166;28;20038;-73
2023/02/07 06:13:08;;;;;;;25.48;9.50;;;0.80;99.90;;;;;;5001460;28;20031;-72
2023/02/07 06:15:34;;;;;;;24.40;9.38;;;0.80;99.90;;;;;;4993227;28;20096;-72
2023/02/07 06:17:59;;;;;;;29.10;8.88;;;0.80;99.90;;;;;;4996799;28;20756;-71
2023/02/07 06:20:25;;;;;;;29.35;8.73;;;0.70;99.90;;;;;;5008748;28;20566;-71
2023/02/07 06:22:51;;;;;;;24.70;9.40;;;0.70;99.90;;;;;;5004733;28;20634;-72
2023/02/07 06:25:17;;;;;;;25.90;10.57;;;0.70;99.90;;;;;;5004834;28;20145;-72
2023/02/07 06:27:42;;;;;;;22.00;8.48;;;0.70;99.90;;;;;;5004767;28;20042;-72
2023/02/07 06:30:09;;;;;;;29.75;9.30;;;0.70;99.90;;;;;;4998547;28;20042;-71
2023/02/07 06:32:35;;;;;;;25.73;8.75;;;0.70;99.90;;;;;;5000328;28;20054;-72
2023/02/07 06:35:01;;;;;;;25.52;9.02;;;0.70;99.90;;;;;;4996274;28;20041;-72
2023/02/07 06:37:26;;;;;;;26.15;8.55;;;0.60;99.90;;;;;;4996970;28;20043;-71
2023/02/07 06:39:52;;;;;;;25.00;9.07;;;0.60;99.90;;;;;;4990154;28;20432;-71
2023/02/07 06:42:17;;;;;;;32.33;10.82;;;0.60;99.90;;;;;;4990077;28;20038;-71
2023/02/07 06:44:43;;;;;;;29.90;9.48;;;0.60;99.90;;;;;;4990301;28;20034;-72
2023/02/07 06:47:09;;;;;;;28.50;9.80;;;0.70;99.90;;;;;;4985983;28;20034;-72
2023/02/07 06:49:34;;;;;;;28.80;10.15;;;0.60;99.90;;;;;;4987490;28;20487;-72
2023/02/07 06:52:00;;;;;;;25.50;9.65;;;0.60;99.90;;;;;;4986208;28;20074;-72
2023/02/07 06:54:25;;;;;;;29.17;11.18;;;0.60;99.90;;;;;;4992635;28;20130;-73
2023/02/07 06:56:51;;;;;;;29.55;11.88;;;0.60;99.90;;;;;;4986479;28;20030;-72
2023/02/07 06:59:17;;;;;;;26.48;9.35;;;0.60;99.90;;;;;;4985385;28;20495;-72
2023/02/07 07:01:43;;;;;;;33.08;10.63;;;0.60;99.90;;;;;;4984976;28;20117;-73
2023/02/07 07:04:08;;;;;;;26.15;9.25;;;0.50;99.90;;;;;;4984750;28;20121;-71
2023/02/07 07:06:34;;;;;;;35.70;10.45;;;0.50;99.90;;;;;;4987512;28;20050;-72
2023/02/07 07:08:59;;;;;;;30.85;11.02;;;0.50;99.90;;;;;;5000880;28;20096;-71
2023/02/07 07:11:25;;;;;;;39.35;10.68;;;0.60;99.90;;;;;;5002284;28;20030;-72
2023/02/07 07:13:51;;;;;;;28.55;10.15;;;0.60;99.90;;;;;;5006190;28;20552;-72
2023/02/07 07:16:16;;;;;;;38.42;11.25;;;0.50;99.90;;;;;;5002844;28;20160;-72
2023/02/07 07:18:42;;;;;;;42.70;10.88;;;0.50;99.90;;;;;;5000581;28;20030;-72
2023/02/07 07:21:08;;;;;;;25.95;10.77;;;0.50;99.90;;;;;;4999476;28;20045;-71
2023/02/07 07:23:34;;;;;;;26.95;10.45;;;0.50;99.90;;;;;;5003896;28;20062;-72
2023/02/07 07:25:59;;;;;;;33.30;10.32;;;0.50;99.90;;;;;;5004319;28;20049;-71
2023/02/07 07:28:25;;;;;;;29.00;10.55;;;0.40;99.90;;;;;;5006962;28;20030;-71
2023/02/07 07:30:50;;;;;;;34.05;12.15;;;0.40;99.90;;;;;;4997817;28;20909;-72
2023/02/07 07:33:16;;;;;;;36.97;11.40;;;0.50;99.90;;;;;;4995941;28;20228;-72
2023/02/07 07:35:42;;;;;;;31.38;10.65;;;0.60;99.90;;;;;;4994990;28;20069;-72
2023/02/07 07:38:07;;;;;;;35.97;10.43;;;0.60;99.90;;;;;;5000083;28;20103;-72
2023/02/07 07:40:33;;;;;;;27.85;10.20;;;0.60;99.90;;;;;;4993855;28;20490;-72
2023/02/07 07:42:59;;;;;;;33.35;10.60;;;0.60;99.90;;;;;;4997643;28;20030;-71
2023/02/07 07:45:24;;;;;;;33.35;12.27;;;0.60;99.90;;;;;;4996784;28;20038;-72
2023/02/07 07:47:50;;;;;;;36.28;11.82;;;0.60;99.90;;;;;;5002071;28;20038;-72
2023/02/07 07:50:16;;;;;;;36.30;11.70;;;0.60;99.90;;;;;;4994789;28;21619;-73
2023/02/07 07:52:41;;;;;;;31.55;10.68;;;0.60;99.90;;;;;;4994874;28;20068;-73
2023/02/07 07:55:08;;;;;;;29.33;12.65;;;0.60;99.90;;;;;;4995429;28;20759;-73
2023/02/07 07:57:34;;;;;;;33.47;12.10;;;0.70;99.90;;;;;;4993481;28;20046;-73
2023/02/07 07:59:59;;;;;;;32.00;10.38;;;0.70;99.90;;;;;;4987635;28;20038;-73
2023/02/07 08:02:25;;;;;;;39.72;12.18;;;0.60;99.90;;;;;;4995663;28;20044;-73
2023/02/07 08:04:51;;;;;;;26.08;9.57;;;0.60;99.90;;;;;;5001414;28;20492;-73
2023/02/07 08:07:17;;;;;;;28.27;11.63;;;0.60;99.90;;;;;;4999404;28;20893;-73
2023/02/07 08:09:43;;;;;;;32.28;13.23;;;0.60;99.90;;;;;;4995361;28;20034;-73
2023/02/07 08:12:09;;;;;;;37.63;12.80;;;0.60;99.90;;;;;;4998008;28;20038;-73
2023/02/07 08:14:34;;;;;;;34.22;13.00;;;0.70;99.90;;;;;;4998357;28;20533;-73
2023/02/07 08:17:00;;;;;;;36.78;13.20;;;0.70;99.90;;;;;;4992165;28;20077;-73
2023/02/07 08:19:26;;;;;;;36.25;12.13;;;0.70;99.90;;;;;;4996614;28;20041;-73
2023/02/07 08:21:51;;;;;;;35.65;12.88;;;0.80;99.90;;;;;;5001116;28;20033;-72
2023/02/07 08:24:17;;;;;;;42.13;12.32;;;0.80;99.90;;;;;;4997142;28;20129;-72
2023/02/07 08:26:42;;;;;;;32.65;11.65;;;0.80;99.90;;;;;;5000271;28;20159;-72
2023/02/07 08:29:08;;;;;;;37.90;11.00;;;0.90;99.90;;;;;;4995162;28;20026;-72
2023/02/07 08:31:34;;;;;;;28.42;9.18;;;0.90;99.90;;;;;;4996762;28;20034;-72
2023/02/07 08:34:00;;;;;;;26.48;9.32;;;0.90;99.90;;;;;;4993258;28;20065;-72
2023/02/07 08:36:25;;;;;;;31.92;9.70;;;1.10;99.90;;;;;;4998181;28;20034;-74
2023/02/07 08:38:51;;;;;;;28.00;11.18;;;1.10;99.90;;;;;;4999720;28;20034;-71
2023/02/07 08:41:17;;;;;;;32.22;10.90;;;1.10;99.90;;;;;;4982733;28;20041;-72
2023/02/07 08:43:43;;;;;;;29.38;9.93;;;1.30;99.90;;;;;;4999721;28;20645;-72
2023/02/07 08:46:08;;;;;;;33.30;9.60;;;1.40;99.90;;;;;;5000506;28;20463;-72
2023/02/07 08:48:34;;;;;;;26.27;9.25;;;1.50;99.90;;;;;;4989980;28;20060;-71
2023/02/07 08:51:08;;;;;;;29.75;9.93;;;1.60;99.90;;;;;;5060321;27;21118;-72
2023/02/07 08:53:34;;;;;;;27.25;9.82;;;1.70;99.90;;;;;;5049425;28;20037;-72
2023/02/07 08:55:59;;;;;;;26.00;9.43;;;1.80;99.90;;;;;;5047468;28;20041;-71
2023/02/07 08:58:25;;;;;;;31.38;9.77;;;1.80;99.90;;;;;;5058382;28;20032;-74
2023/02/07 09:00:50;;;;;;;29.25;10.30;;;1.80;99.90;;;;;;5053945;28;20021;-73
2023/02/07 09:03:16;;;;;;;27.98;10.00;;;1.80;99.90;;;;;;5055654;28;20037;-72
2023/02/07 09:05:42;;;;;;;31.73;10.90;;;1.90;99.90;;;;;;5053657;28;20047;-73
2023/02/07 09:08:07;;;;;;;27.45;9.77;;;2.00;99.90;;;;;;5055183;28;20518;-73
2023/02/07 09:10:33;;;;;;;25.70;9.88;;;2.00;99.90;;;;;;5055018;28;20052;-72
2023/02/07 09:12:59;;;;;;;23.30;8.88;;;2.10;99.90;;;;;;5059180;28;20509;-72
2023/02/07 09:15:25;;;;;;;25.10;8.50;;;2.20;99.90;;;;;;5054313;28;20036;-72
2023/02/07 09:17:51;;;;;;;23.70;9.27;;;2.30;99.90;;;;;;5055066;28;20036;-72
2023/02/07 09:20:17;;;;;;;22.45;8.85;;;2.30;99.90;;;;;;5054868;28;20044;-72
2023/02/07 09:25:27;;;;;;;22.17;8.38;;;2.50;99.90;;;;;;5052813;28;20035;-72
2023/02/07 09:27:54;;;;;;;27.27;8.27;;;2.50;99.90;;;;;;5053926;28;20044;-72
2023/02/07 09:30:20;;;;;;;23.70;7.95;;;2.60;99.90;;;;;;5053865;28;20047;-73
2023/02/07 09:32:46;;;;;;;26.77;9.63;;;2.60;99.90;;;;;;5069061;28;20032;-72
2023/02/07 09:35:11;;;;;;;22.23;8.65;;;2.60;99.90;;;;;;5054569;28;20033;-71
2023/02/07 09:37:37;;;;;;;20.80;7.78;;;2.60;99.90;;;;;;5054560;28;20041;-72
2023/02/07 09:40:03;;;;;;;30.45;8.40;;;2.70;99.90;;;;;;5055201;28;20393;-73
2023/02/07 09:42:47;;;;;;;17.13;6.43;;;2.80;99.90;;;;;;5054589;28;20037;-72
2023/02/07 09:45:21;;;;;;;20.58;7.65;;;2.80;99.90;;;;;;5053548;28;20140;-72
2023/02/07 09:47:51;;;;;;;23.90;7.47;;;2.80;99.90;;;;;;5053704;28;20111;-75
2023/02/07 09:50:21;;;;;;;18.10;7.43;;;2.90;99.90;;;;;;5058928;28;20166;-73
2023/02/07 09:53:03;;;;;;;22.77;6.90;;;3.00;99.90;;;;;;5058236;28;20037;-72
2023/02/07 09:55:52;;;;;;;22.60;8.73;;;3.10;99.90;;;;;;5048333;28;20074;-72
2023/02/07 09:58:50;;;;;;;17.67;6.90;;;3.10;99.90;;;;;;5047235;28;20044;-73
2023/02/07 10:01:24;;;;;;;22.90;8.40;;;3.20;99.90;;;;;;5060802;28;20033;-72
2023/02/07 10:04:32;;;;;;;17.00;6.20;;;3.20;99.90;;;;;;5044530;28;20489;-74
2023/02/07 10:06:59;;;;;;;24.88;8.07;;;3.30;99.90;;;;;;4983653;28;20038;-74
2023/02/07 10:09:45;;;;;;;27.60;9.02;;;3.30;99.90;;;;;;5028216;28;20064;-72
2023/02/07 10:12:23;;;;;;;24.33;7.65;;;3.30;99.90;;;;;;5039280;28;20489;-74
2023/02/07 10:15:01;;;;;;;18.55;7.78;;;3.40;99.90;;;;;;5041332;28;20043;-71
2023/02/07 10:17:49;;;;;;;20.50;7.53;;;3.30;99.90;;;;;;5031630;28;20599;-72
2023/02/07 10:20:34;;;;;;;18.30;6.70;;;3.30;99.90;;;;;;5030289;28;20047;-71
2023/02/07 10:23:19;;;;;;;21.15;6.90;;;3.30;99.90;;;;;;5041580;28;20119;-72
2023/02/07 10:26:08;;;;;;;20.08;7.97;;;3.30;99.90;;;;;;5010973;28;20041;-72
2023/02/07 10:28:37;;;;;;;24.15;8.98;;;3.40;99.90;;;;;;5036924;28;20048;-71
2023/02/07 10:31:11;;;;;;;17.02;7.43;;;3.40;99.90;;;;;;5032007;28;20044;-72
2023/02/07 10:33:42;;;;;;;19.67;8.07;;;3.50;99.90;;;;;;5031653;28;20133;-72
2023/02/07 10:36:14;;;;;;;18.33;7.53;;;3.50;99.90;;;;;;5042550;28;20033;-72
2023/02/07 10:38:55;;;;;;;17.65;6.65;;;3.50;99.90;;;;;;5018244;28;20044;-72
2023/02/07 10:41:32;;;;;;;21.67;7.88;;;3.50;99.90;;;;;;5039109;28;20112;-72
2023/02/07 10:43:57;;;;;;;20.77;6.68;;;3.50;99.90;;;;;;5041348;28;20038;-72
2023/02/07 10:46:24;;;;;;;19.38;7.20;;;3.50;99.90;;;;;;5019670;28;20175;-74
2023/02/07 10:48:49;;;;;;;18.58;7.07;;;3.50;99.90;;;;;;5040201;28;20029;-71
2023/02/07 10:51:26;;;;;;;18.90;7.15;;;3.50;99.90;;;;;;5040714;28;20029;-72
2023/02/07 10:54:15;;;;;;;21.98;6.85;;;3.50;99.90;;;;;;5035217;28;20040;-72
2023/02/07 10:56:53;;;;;;;13.45;6.80;;;3.60;99.90;;;;;;5039643;28;20040;-71
2023/02/07 10:59:34;;;;;;;23.42;7.97;;;3.60;99.90;;;;;;5035244;28;20064;-73
2023/02/07 11:02:00;;;;;;;18.52;7.88;;;3.50;99.90;;;;;;5035984;28;20040;-72
2023/02/07 11:04:52;;;;;;;22.27;7.43;;;3.60;99.90;;;;;;5038396;28;20036;-71
2023/02/07 11:07:19;;;;;;;21.23;7.60;;;3.60;99.90;;;;;;5035288;28;20040;-73
2023/02/07 11:09:46;;;;;;;20.52;7.88;;;3.50;99.90;;;;;;5025098;28;20033;-71
2023/02/07 11:12:19;;;;;;;18.33;6.70;;;3.60;99.90;;;;;;5033006;28;20033;-71
2023/02/07 11:15:03;;;;;;;16.75;6.95;;;3.70;99.90;;;;;;5034712;28;20038;-72
2023/02/07 11:17:30;;;;;;;19.60;6.63;;;3.90;99.90;;;;;;5032130;28;20041;-70
2023/02/07 11:20:01;;;;;;;18.73;7.18;;;4.00;99.90;;;;;;5022934;28;20045;-72
2023/02/07 11:22:27;;;;;;;12.82;6.30;;;4.20;99.90;;;;;;5038209;28;20452;-72
2023/02/07 11:25:01;;;;;;;19.63;5.85;;;4.20;99.90;;;;;;5038354;28;20044;-72
2023/02/07 11:27:27;;;;;;;15.63;6.18;;;4.30;99.90;;;;;;5035301;28;20497;-72
2023/02/07 11:29:53;;;;;;;18.92;6.35;;;4.20;99.90;;;;;;5021025;28;20038;-72
2023/02/07 11:32:20;;;;;;;13.63;5.68;;;4.30;99.90;;;;;;5024448;28;20076;-71
2023/02/07 11:34:58;;;;;;;14.88;6.63;;;4.30;99.90;;;;;;5020312;28;20057;-72
2023/02/07 11:37:32;;;;;;;16.25;6.15;;;4.30;99.90;;;;;;5023083;28;20056;-71
2023/02/07 11:40:19;;;;;;;13.07;5.85;;;4.50;99.90;;;;;;5022522;28;20037;-73
2023/02/07 11:42:49;;;;;;;14.63;6.88;;;4.70;99.90;;;;;;5025780;28;20059;-72
2023/02/07 11:45:20;;;;;;;11.05;4.57;;;4.70;99.90;;;;;;5038839;28;20086;-72
2023/02/07 11:47:48;;;;;;;16.70;6.13;;;4.80;99.90;;;;;;5022345;28;20044;-75
2023/02/07 11:50:43;;;;;;;15.02;5.53;;;4.80;99.90;;;;;;5018866;28;20044;-72
2023/02/07 11:53:26;;;;;;;17.92;6.43;;;4.70;99.90;;;;;;5038107;28;20041;-72
2023/02/07 11:55:56;;;;;;;14.57;5.90;;;4.50;99.90;;;;;;5036988;28;20072;-73
2023/02/07 11:58:32;;;;;;;12.07;4.63;;;4.40;99.90;;;;;;5024612;28;20044;-73
2023/02/07 12:01:01;;;;;;;13.10;4.22;;;4.40;99.90;;;;;;5025847;28;20055;-73
2023/02/07 12:03:33;;;;;;;10.45;4.88;;;4.40;99.90;;;;;;5032666;28;20040;-71
2023/02/07 12:06:03;;;;;;;18.15;5.53;;;4.30;99.90;;;;;;5020608;28;20040;-73
2023/02/07 12:08:34;;;;;;;12.70;4.65;;;4.20;99.90;;;;;;5017105;28;20619;-73
2023/02/07 12:11:04;;;;;;;10.85;4.65;;;4.10;99.90;;;;;;5018227;28;20041;-73
2023/02/07 12:13:37;;;;;;;10.13;4.43;;;4.10;99.90;;;;;;5020501;28;20037;-73
2023/02/07 12:16:27;;;;;;;11.98;4.43;;;4.20;99.90;;;;;;5018488;28;20033;-73
2023/02/07 12:18:59;;;;;;;10.17;3.93;;;4.20;99.90;;;;;;5036470;28;20053;-72
2023/02/07 12:21:34;;;;;;;9.52;3.50;;;4.20;99.90;;;;;;5037201;28;20068;-73
2023/02/07 12:24:10;;;;;;;8.90;3.88;;;4.20;99.90;;;;;;5038964;28;20029;-71
2023/02/07 12:26:46;;;;;;;9.93;4.00;;;4.30;99.90;;;;;;5031090;28;20043;-71
2023/02/07 12:29:14;;;;;;;12.30;4.13;;;4.20;99.90;;;;;;5035709;28;20036;-70
2023/02/07 12:31:48;;;;;;;10.63;3.83;;;4.20;99.90;;;;;;5043939;28;20028;-71
2023/02/07 12:34:24;;;;;;;9.27;3.40;;;4.20;99.90;;;;;;5053998;28;20035;-71
2023/02/07 12:36:54;;;;;;;7.75;3.25;;;4.20;99.90;;;;;;5032432;28;20029;-72
2023/02/07 12:39:27;;;;;;;;;;;4.20;99.90;;;;;;5036735;28;20079;-77
2023/02/07 12:42:08;;;;;;;7.93;3.58;;;4.20;99.90;;;;;;5035934;28;19935;-72
2023/02/07 12:44:37;;;;;;;;;;;4.20;99.90;;;;;;5033916;28;20037;-73
2023/02/07 12:47:25;;;;;;;10.30;3.88;;;4.20;99.90;;;;;;5016868;28;20474;-73
2023/02/07 12:49:53;;;;;;;7.82;3.80;;;4.20;99.90;;;;;;5038731;28;20053;-72
2023/02/07 12:52:43;;;;;;;10.13;3.78;;;4.20;99.90;;;;;;5038008;28;20067;-71
2023/02/07 12:55:33;;;;;;;7.43;3.50;;;4.30;99.90;;;;;;5040356;28;20045;-72
2023/02/07 12:58:13;;;;;;;8.95;3.00;;;4.30;99.90;;;;;;5045008;28;20037;-73
2023/02/07 13:01:12;;;;;;;8.07;3.35;;;4.40;99.90;;;;;;5043579;28;20086;-71
2023/02/07 13:04:08;;;;;;;7.50;3.45;;;4.40;99.90;;;;;;5009354;28;20075;-73
2023/02/07 13:06:44;;;;;;;8.90;4.05;;;4.50;99.90;;;;;;5039147;28;21608;-74